createdAt,value
2024-05-09T00:01:14.087Z,41.14
2024-05-09T00:03:49.330Z,41.09
2024-05-09T00:06:24.189Z,41.06
2024-05-09T00:08:58.901Z,40.82
2024-05-09T00:11:36.495Z,41.00
2024-05-09T00:14:11.264Z,40.97
2024-05-09T00:16:46.284Z,40.92
2024-05-09T00:19:21.330Z,40.98
2024-05-09T00:21:56.585Z,41.14
2024-05-09T00:24:31.757Z,40.72
2024-05-09T00:27:11.245Z,40.93
2024-05-09T00:29:47.862Z,40.85
2024-05-09T00:32:23.590Z,41.15
2024-05-09T00:34:58.383Z,40.92
2024-05-09T00:37:33.234Z,41.13
2024-05-09T00:40:18.258Z,41.08
2024-05-09T00:43:00.137Z,41.01
2024-05-09T00:45:34.772Z,40.94
2024-05-09T00:48:11.586Z,41.00
2024-05-09T00:50:49.386Z,41.06
2024-05-09T00:53:24.577Z,41.24
2024-05-09T00:56:00.435Z,41.08
2024-05-09T00:58:38.265Z,41.10
2024-05-09T01:01:13.653Z,41.19
2024-05-09T01:03:51.176Z,41.51
2024-05-09T01:06:26.282Z,41.32
2024-05-09T01:09:01.232Z,41.17
2024-05-09T01:11:39.237Z,41.36
2024-05-09T01:14:16.788Z,41.25
2024-05-09T01:16:52.093Z,40.97
2024-05-09T01:19:31.273Z,41.21
2024-05-09T01:22:08.026Z,40.92
2024-05-09T01:24:45.364Z,41.10
2024-05-09T01:27:20.022Z,41.29
2024-05-09T01:29:54.732Z,41.25
2024-05-09T01:32:29.515Z,41.27
2024-05-09T01:35:04.589Z,41.31
2024-05-09T01:37:40.381Z,41.11
2024-05-09T01:40:22.131Z,41.24
2024-05-09T01:42:59.962Z,41.00
2024-05-09T01:45:35.211Z,41.18
2024-05-09T01:48:11.211Z,41.27
2024-05-09T01:50:46.455Z,41.23
2024-05-09T01:53:21.207Z,41.15
2024-05-09T01:55:58.746Z,40.89
2024-05-09T01:58:33.555Z,41.20
2024-05-09T02:01:09.007Z,41.10
2024-05-09T02:03:44.032Z,41.22
2024-05-09T02:06:18.826Z,41.35
2024-05-09T02:08:53.607Z,41.10
2024-05-09T02:11:31.115Z,41.14
2024-05-09T02:14:09.518Z,41.18
2024-05-09T02:16:44.266Z,41.35
2024-05-09T02:19:19.069Z,41.41
2024-05-09T02:21:53.913Z,41.38
2024-05-09T02:24:28.753Z,41.18
2024-05-09T02:27:06.273Z,40.97
2024-05-09T02:29:41.068Z,41.00
2024-05-09T02:32:15.917Z,41.34
2024-05-09T02:34:50.663Z,41.32
2024-05-09T02:37:22.767Z,41.13
2024-05-09T02:39:57.419Z,41.38
2024-05-09T02:42:33.615Z,41.24
2024-05-09T02:45:09.122Z,41.26
2024-05-09T02:47:44.044Z,41.30
2024-05-09T02:50:19.279Z,41.12
2024-05-09T02:52:58.296Z,41.28
2024-05-09T02:55:30.292Z,41.44
2024-05-09T02:58:09.236Z,41.21
2024-05-09T03:00:42.895Z,41.25
2024-05-09T03:03:18.073Z,41.32
2024-05-09T03:05:50.215Z,41.11
2024-05-09T03:08:26.519Z,41.33
2024-05-09T03:10:58.725Z,41.26
2024-05-09T03:13:36.223Z,40.94
2024-05-09T03:16:08.334Z,40.93
2024-05-09T03:18:43.262Z,41.16
2024-05-09T03:21:15.344Z,41.04
2024-05-09T03:23:50.272Z,41.05
2024-05-09T03:26:22.543Z,41.32
2024-05-09T03:29:01.764Z,41.25
2024-05-09T03:31:33.768Z,41.32
2024-05-09T03:34:09.478Z,41.38
2024-05-09T03:36:43.058Z,41.25
2024-05-09T03:39:17.904Z,41.41
2024-05-09T03:41:52.499Z,41.31
2024-05-09T03:44:29.881Z,41.46
2024-05-09T03:47:02.017Z,41.51
2024-05-09T03:49:36.788Z,41.36
2024-05-09T03:52:08.847Z,41.44
2024-05-09T03:54:48.200Z,41.51
2024-05-09T03:57:20.440Z,41.45
2024-05-09T03:59:57.854Z,41.48
2024-05-09T04:02:30.052Z,40.95
2024-05-09T04:05:05.018Z,41.51
2024-05-09T04:07:37.724Z,41.37
2024-05-09T04:10:21.112Z,41.08
2024-05-09T04:12:59.955Z,41.13
2024-05-09T04:15:37.761Z,41.12
2024-05-09T04:18:10.212Z,40.99
2024-05-09T04:20:45.072Z,41.00
2024-05-09T04:23:17.199Z,40.91
2024-05-09T04:25:52.219Z,40.72
2024-05-09T04:28:24.210Z,40.87
2024-05-09T04:31:01.453Z,40.89
2024-05-09T04:33:33.661Z,41.20
2024-05-09T04:36:09.762Z,40.74
2024-05-09T04:38:41.943Z,41.22
2024-05-09T04:41:16.950Z,40.80
2024-05-09T04:43:50.852Z,40.84
2024-05-09T04:46:28.190Z,40.68
2024-05-09T04:49:00.321Z,40.84
2024-05-09T04:51:34.996Z,41.05
2024-05-09T04:54:10.636Z,40.74
2024-05-09T04:56:45.583Z,40.85
2024-05-09T04:59:17.758Z,41.23
2024-05-09T05:01:55.258Z,41.05
2024-05-09T05:04:27.364Z,40.90
2024-05-09T05:07:02.947Z,41.18
2024-05-09T05:09:35.630Z,41.11
2024-05-09T05:12:31.119Z,41.00
2024-05-09T05:15:03.424Z,41.02
2024-05-09T05:17:40.977Z,40.88
2024-05-09T05:20:17.876Z,41.12
2024-05-09T05:22:58.838Z,41.32
2024-05-09T05:25:30.890Z,41.02
2024-05-09T05:28:05.700Z,41.11
2024-05-09T05:30:38.838Z,40.86
2024-05-09T05:33:18.275Z,41.07
2024-05-09T05:35:50.892Z,41.27
2024-05-09T05:38:28.196Z,41.07
2024-05-09T05:41:00.863Z,41.20
2024-05-09T05:43:36.973Z,41.12
2024-05-09T05:46:08.952Z,41.27
2024-05-09T05:48:46.693Z,41.63
2024-05-09T05:51:19.188Z,41.29
2024-05-09T05:53:55.186Z,41.19
2024-05-09T05:56:27.648Z,41.52
2024-05-09T05:59:03.095Z,41.45
2024-05-09T06:01:35.640Z,41.35
2024-05-09T06:04:13.011Z,41.21
2024-05-09T06:06:45.057Z,41.72
2024-05-09T06:09:19.799Z,41.77
2024-05-09T06:11:52.160Z,41.76
2024-05-09T06:14:27.849Z,41.58
2024-05-09T06:17:00.192Z,42.02
2024-05-09T06:19:37.529Z,42.19
2024-05-09T06:22:11.081Z,42.01
2024-05-09T06:24:46.446Z,41.93
2024-05-09T06:27:18.821Z,41.83
2024-05-09T06:29:53.838Z,41.78
2024-05-09T06:32:25.999Z,42.04
2024-05-09T06:35:03.605Z,41.80
2024-05-09T06:37:35.903Z,41.90
2024-05-09T06:40:12.555Z,41.95
2024-05-09T06:42:46.797Z,42.10
2024-05-09T06:45:21.634Z,41.80
2024-05-09T06:47:54.074Z,42.00
2024-05-09T06:50:37.220Z,41.67
2024-05-09T06:53:15.334Z,41.93
2024-05-09T06:55:50.340Z,41.94
2024-05-09T06:58:25.285Z,42.74
2024-05-09T07:00:57.315Z,45.25
2024-05-09T07:03:32.767Z,45.50
2024-05-09T07:06:09.730Z,44.39
2024-05-09T07:08:44.758Z,44.09
2024-05-09T07:11:17.360Z,43.42
2024-05-09T07:13:52.232Z,46.14
2024-05-09T07:16:24.474Z,46.87
2024-05-09T07:18:59.827Z,47.11
2024-05-09T07:21:35.123Z,47.16
2024-05-09T07:24:10.108Z,47.22
2024-05-09T07:26:42.174Z,47.51
2024-05-09T07:29:16.911Z,47.18
2024-05-09T07:31:50.022Z,47.53
2024-05-09T07:34:25.572Z,47.66
2024-05-09T07:37:01.873Z,48.03
2024-05-09T07:39:36.602Z,47.67
2024-05-09T07:42:08.710Z,47.28
2024-05-09T07:44:43.565Z,47.18
2024-05-09T07:48:28.898Z,46.93
2024-05-09T07:53:35.260Z,46.84
2024-05-09T07:55:45.075Z,46.94
2024-05-09T07:58:17.272Z,46.65
2024-05-09T08:00:52.113Z,46.72
2024-05-09T08:03:24.472Z,46.32
2024-05-09T08:05:59.387Z,45.44
2024-05-09T08:08:34.216Z,45.34
2024-05-09T08:11:09.369Z,45.10
2024-05-09T08:13:41.623Z,45.79
2024-05-09T08:16:17.071Z,44.80
2024-05-09T08:18:49.530Z,45.23
2024-05-09T08:21:24.365Z,45.31
2024-05-09T08:23:59.078Z,45.17
2024-05-09T08:26:34.288Z,45.41
2024-05-09T08:29:06.345Z,44.43
2024-05-09T08:31:41.321Z,44.98
2024-05-09T08:34:14.166Z,45.76
2024-05-09T08:36:49.392Z,45.43
2024-05-09T08:39:24.221Z,45.36
2024-05-09T08:41:58.899Z,45.50
2024-05-09T08:44:31.548Z,45.92
2024-05-09T08:47:08.613Z,45.46
2024-05-09T09:01:44.558Z,45.81
2024-05-09T09:04:18.583Z,45.56
2024-05-09T09:06:58.294Z,45.95
2024-05-09T09:15:50.040Z,45.95
2024-05-09T09:18:26.427Z,45.48
2024-05-09T09:21:02.865Z,45.38
2024-05-09T09:23:35.080Z,45.54
2024-05-09T09:26:09.870Z,45.10
2024-05-09T09:28:41.967Z,44.87
2024-05-09T09:31:21.825Z,44.37
2024-05-09T09:33:56.806Z,44.66
2024-05-09T09:36:33.395Z,44.27
2024-05-09T09:39:07.547Z,44.54
2024-05-09T09:41:45.833Z,44.52
2024-05-09T09:44:19.612Z,44.59
2024-05-09T10:15:12.501Z,43.43
2024-05-09T10:17:51.078Z,43.94
2024-05-09T10:20:30.839Z,43.99
2024-05-09T10:23:05.456Z,43.98
2024-05-09T10:25:40.431Z,43.60
2024-05-09T10:28:13.197Z,43.34
2024-05-09T10:30:50.536Z,43.41
2024-05-09T10:33:23.206Z,43.50
2024-05-09T10:35:58.040Z,43.49
2024-05-09T10:38:31.016Z,42.89
2024-05-09T10:44:05.974Z,43.35
2024-05-09T10:46:41.370Z,43.15
2024-05-09T10:49:17.304Z,43.06
2024-05-09T10:51:50.653Z,42.82
2024-05-09T10:54:25.385Z,42.61
2024-05-09T10:56:57.800Z,42.84
2024-05-09T10:59:36.825Z,42.94
2024-05-09T11:02:12.616Z,42.93
2024-05-09T11:04:47.876Z,42.78
2024-05-09T11:07:21.528Z,43.14
2024-05-09T11:09:56.863Z,42.64
2024-05-09T11:12:29.581Z,42.92
2024-05-09T11:15:05.366Z,42.87
2024-05-09T11:17:40.025Z,42.62
2024-05-09T11:20:22.652Z,42.57
2024-05-09T11:23:01.719Z,42.51
2024-05-09T11:25:34.172Z,42.56
2024-05-09T11:28:10.669Z,42.48
2024-05-09T11:30:42.940Z,41.62
2024-05-09T11:33:21.689Z,41.83
2024-05-09T11:35:53.845Z,40.93
2024-05-09T11:38:28.913Z,41.05
2024-05-09T11:41:01.788Z,41.17
2024-05-09T11:43:37.530Z,38.75
2024-05-09T11:46:10.019Z,38.11
2024-05-09T11:48:48.280Z,39.09
2024-05-09T11:51:20.499Z,39.76
2024-05-09T11:53:55.198Z,39.56
2024-05-09T11:56:27.432Z,37.68
2024-05-09T11:59:02.409Z,37.47
2024-05-09T12:01:34.711Z,37.56
2024-05-09T12:04:12.341Z,38.14
2024-05-09T12:06:46.249Z,37.54
2024-05-09T12:09:21.558Z,37.81
2024-05-09T12:11:53.774Z,37.47
2024-05-09T12:14:28.880Z,37.20
2024-05-09T12:17:03.747Z,37.08
2024-05-09T12:19:41.727Z,37.55
2024-05-09T12:22:14.367Z,37.80
2024-05-09T12:24:49.357Z,37.58
2024-05-09T12:27:22.350Z,37.56
2024-05-09T12:29:57.418Z,37.60
2024-05-09T12:32:29.732Z,37.25
2024-05-09T12:35:07.812Z,37.85
2024-05-09T12:37:39.993Z,37.43
2024-05-09T12:40:22.933Z,37.83
2024-05-09T12:43:05.087Z,37.29
2024-05-09T12:45:40.395Z,37.50
2024-05-09T12:48:13.376Z,37.23
2024-05-09T12:50:51.611Z,37.45
2024-05-09T12:53:23.765Z,37.60
2024-05-09T12:56:02.237Z,37.68
2024-05-09T12:58:35.811Z,37.25
2024-05-09T13:01:10.501Z,36.76
2024-05-09T13:03:42.919Z,37.19
2024-05-09T13:06:20.516Z,36.64
2024-05-09T13:08:53.004Z,36.96
2024-05-09T13:11:27.914Z,36.62
2024-05-09T13:14:00.135Z,36.49
2024-05-09T13:16:35.010Z,35.91
2024-05-09T13:19:07.306Z,36.09
2024-05-09T13:21:44.643Z,35.94
2024-05-09T13:24:16.794Z,35.56
2024-05-09T13:26:51.441Z,35.61
2024-05-09T13:29:23.538Z,35.76
2024-05-09T13:31:58.351Z,35.72
2024-05-09T13:34:30.476Z,35.18
2024-05-09T13:37:08.101Z,35.50
2024-05-09T13:39:40.370Z,35.16
2024-05-09T13:42:15.222Z,35.17
2024-05-09T13:44:47.249Z,34.54
2024-05-09T13:47:22.272Z,34.38
2024-05-09T13:49:54.561Z,34.29
2024-05-09T13:52:31.886Z,34.23
2024-05-09T13:55:04.108Z,33.87
2024-05-09T13:57:39.593Z,34.34
2024-05-09T14:00:26.418Z,33.63
2024-05-09T14:03:07.523Z,33.31
2024-05-09T14:05:40.449Z,32.58
2024-05-09T14:08:19.470Z,32.76
2024-05-09T14:10:54.128Z,31.87
2024-05-09T14:13:29.055Z,31.35
2024-05-09T14:16:02.210Z,31.86
2024-05-09T14:18:37.498Z,32.02
2024-05-09T14:21:09.423Z,30.65
2024-05-09T14:23:46.596Z,30.15
2024-05-09T14:26:18.883Z,29.30
2024-05-09T14:28:53.644Z,29.32
2024-05-09T14:31:25.647Z,28.81
2024-05-09T14:34:00.894Z,28.91
2024-05-09T14:36:33.747Z,28.75
2024-05-09T14:39:11.024Z,29.14
2024-05-09T14:41:43.006Z,29.38
2024-05-09T14:44:17.692Z,29.36
2024-05-09T14:46:50.304Z,29.35
2024-05-09T14:49:25.172Z,28.85
2024-05-09T14:51:57.553Z,28.78
2024-05-09T14:54:35.366Z,28.48
2024-05-09T14:57:07.528Z,27.42
2024-05-09T14:59:42.119Z,28.44
2024-05-09T15:02:14.299Z,28.21
2024-05-09T15:04:49.325Z,28.25
2024-05-09T15:07:21.605Z,28.75
2024-05-09T15:09:59.401Z,29.16
2024-05-09T15:12:31.787Z,28.99
2024-05-09T15:15:07.011Z,29.30
2024-05-09T15:17:39.624Z,29.20
2024-05-09T15:20:17.548Z,29.91
2024-05-09T15:22:55.889Z,29.69
2024-05-09T15:25:33.964Z,29.83
2024-05-09T15:28:07.835Z,29.48
2024-05-09T15:30:45.963Z,29.45
2024-05-09T15:33:19.046Z,29.09
2024-05-09T15:35:54.380Z,29.13
2024-05-09T15:38:27.670Z,29.46
2024-05-09T15:41:04.902Z,29.38
2024-05-09T15:43:36.999Z,29.23
2024-05-09T15:46:11.856Z,29.62
2024-05-09T15:48:44.964Z,29.41
2024-05-09T15:51:19.774Z,30.10
2024-05-09T15:53:52.083Z,29.35
2024-05-09T15:56:29.883Z,29.28
2024-05-09T15:59:03.301Z,29.17
2024-05-09T16:01:38.277Z,29.44
2024-05-09T16:04:11.211Z,29.19
2024-05-09T16:06:47.930Z,29.14
2024-05-09T16:09:21.270Z,28.76
2024-05-09T16:11:59.015Z,28.85
2024-05-09T16:14:31.153Z,29.54
2024-05-09T16:17:05.977Z,29.46
2024-05-09T16:19:38.174Z,29.42
2024-05-09T16:22:13.236Z,29.02
2024-05-09T16:24:45.637Z,29.14
2024-05-09T16:27:23.070Z,28.97
2024-05-09T16:29:58.058Z,29.24
2024-05-09T16:32:32.808Z,29.07
2024-05-09T16:35:06.145Z,28.96
2024-05-09T16:37:41.448Z,28.82
2024-05-09T16:40:22.071Z,29.17
2024-05-09T16:43:08.530Z,28.07
2024-05-09T16:45:43.826Z,28.40
2024-05-09T16:48:19.378Z,28.94
2024-05-09T16:50:52.007Z,28.65
2024-05-09T16:53:27.672Z,28.64
2024-05-09T16:55:59.934Z,28.62
2024-05-09T16:58:37.362Z,28.72
2024-05-09T17:01:13.432Z,28.45
2024-05-09T17:03:48.182Z,28.27
2024-05-09T17:06:20.251Z,28.31
2024-05-09T17:08:55.602Z,28.92
2024-05-09T17:11:35.605Z,28.60
2024-05-09T17:14:12.939Z,28.74
2024-05-09T17:16:47.781Z,28.71
2024-05-09T17:19:19.978Z,28.66
2024-05-09T17:21:54.856Z,29.02
2024-05-09T17:24:26.933Z,29.14
2024-05-09T17:27:02.309Z,28.64
2024-05-09T17:29:37.535Z,29.03
2024-05-09T17:32:13.558Z,29.20
2024-05-09T17:34:45.834Z,29.03
2024-05-09T17:37:20.665Z,28.92
2024-05-09T17:39:54.859Z,28.70
2024-05-09T17:42:30.044Z,28.85
2024-05-09T17:45:05.214Z,28.51
2024-05-09T17:47:39.881Z,28.27
2024-05-09T17:50:17.353Z,29.10
2024-05-09T17:52:58.964Z,28.99
2024-05-09T17:55:31.151Z,29.01
2024-05-09T17:58:07.877Z,28.89
2024-05-09T18:00:43.054Z,28.68
2024-05-09T18:03:17.986Z,28.73
2024-05-09T18:05:50.433Z,28.72
2024-05-09T18:08:25.747Z,29.06
2024-05-09T18:10:59.157Z,29.39
2024-05-09T18:13:34.845Z,29.13
2024-05-09T18:16:09.646Z,29.94
2024-05-09T18:18:44.979Z,29.47
2024-05-09T18:21:19.864Z,29.64
2024-05-09T18:23:54.413Z,29.55
2024-05-09T18:26:30.459Z,29.93
2024-05-09T18:29:03.736Z,29.29
2024-05-09T18:31:41.124Z,29.64
2024-05-09T18:34:14.033Z,29.80
2024-05-09T18:36:49.323Z,29.90
2024-05-09T18:39:21.492Z,29.82
2024-05-09T18:41:56.249Z,30.13
2024-05-09T18:44:28.592Z,30.06
2024-05-09T18:47:05.915Z,30.30
2024-05-09T18:49:38.574Z,30.46
2024-05-09T18:52:13.268Z,30.40
2024-05-09T18:54:45.572Z,30.36
2024-05-09T18:57:20.501Z,30.74
2024-05-09T18:59:53.568Z,30.63
2024-05-09T19:02:30.962Z,30.71
2024-05-09T19:05:03.258Z,30.86
2024-05-09T19:07:38.142Z,30.75
2024-05-09T19:10:22.020Z,31.11
2024-05-09T19:13:00.668Z,30.76
2024-05-09T19:15:33.234Z,30.50
2024-05-09T19:18:11.084Z,30.79
2024-05-09T19:20:43.988Z,30.80
2024-05-09T19:23:18.820Z,31.42
2024-05-09T19:25:51.360Z,30.91
2024-05-09T19:28:25.999Z,31.06
2024-05-09T19:30:58.161Z,31.00
2024-05-09T19:33:36.945Z,31.07
2024-05-09T19:36:09.717Z,30.63
2024-05-09T19:38:44.192Z,31.23
2024-05-09T19:41:16.288Z,31.61
2024-05-09T19:43:50.978Z,31.06
2024-05-09T19:46:24.126Z,31.49
2024-05-09T19:49:02.320Z,31.28
2024-05-09T19:51:34.564Z,31.52
2024-05-09T19:54:09.292Z,31.41
2024-05-09T19:56:45.053Z,31.79
2024-05-09T19:59:19.800Z,31.60
2024-05-09T20:01:52.257Z,31.71
2024-05-09T20:04:29.796Z,32.04
2024-05-09T20:07:02.520Z,31.81
2024-05-09T20:09:37.440Z,32.02
2024-05-09T20:12:09.948Z,32.33
2024-05-09T20:14:44.672Z,32.08
2024-05-09T20:17:17.767Z,32.24
2024-05-09T20:19:55.559Z,32.35
2024-05-09T20:22:27.688Z,32.26
2024-05-09T20:25:03.569Z,32.35
2024-05-09T20:27:35.727Z,32.62
2024-05-09T20:30:14.447Z,32.66
2024-05-09T20:32:49.081Z,32.41
2024-05-09T20:35:26.471Z,32.43
2024-05-09T20:37:59.184Z,32.54
2024-05-09T20:40:37.728Z,32.76
2024-05-09T20:43:11.608Z,33.02
2024-05-09T20:45:46.483Z,32.89
2024-05-09T20:48:18.749Z,32.99
2024-05-09T20:50:56.373Z,33.35
2024-05-09T20:53:28.668Z,32.98
2024-05-09T20:56:03.441Z,33.10
2024-05-09T20:58:35.494Z,33.44
2024-05-09T21:01:10.417Z,33.46
2024-05-09T21:03:42.872Z,33.66
2024-05-09T21:06:20.228Z,33.69
2024-05-09T21:08:52.766Z,33.76
2024-05-09T21:11:27.912Z,33.46
2024-05-09T21:13:59.964Z,33.63
2024-05-09T21:16:35.022Z,33.67
2024-05-09T21:19:07.351Z,33.65
2024-05-09T21:21:45.353Z,33.79
2024-05-09T21:24:17.477Z,33.60
2024-05-09T21:26:52.088Z,33.76
2024-05-09T21:29:24.494Z,34.07
2024-05-09T21:31:59.318Z,34.26
2024-05-09T21:34:31.739Z,34.17
2024-05-09T21:37:09.075Z,34.32
2024-05-09T21:39:41.258Z,34.17
2024-05-09T21:42:16.727Z,34.28
2024-05-09T21:44:48.807Z,34.09
2024-05-09T21:47:23.661Z,34.54
2024-05-09T21:49:55.725Z,34.32
2024-05-09T21:52:33.624Z,34.15
2024-05-09T21:55:06.590Z,34.41
2024-05-09T21:57:41.540Z,34.55
2024-05-09T22:00:20.371Z,34.76
2024-05-09T22:03:00.635Z,34.54
2024-05-09T22:05:33.270Z,34.86
2024-05-09T22:08:11.488Z,34.89
2024-05-09T22:10:44.152Z,34.92
2024-05-09T22:13:20.549Z,34.68
2024-05-09T22:15:53.169Z,34.92
2024-05-09T22:18:27.876Z,34.99
2024-05-09T22:21:00.142Z,35.36
2024-05-09T22:23:37.519Z,35.34
2024-05-09T22:26:09.974Z,35.24
2024-05-09T22:28:45.101Z,34.80
2024-05-09T22:31:17.146Z,35.35
2024-05-09T22:33:52.219Z,35.38
2024-05-09T22:36:24.668Z,35.39
2024-05-09T22:39:01.977Z,35.38
2024-05-09T22:41:34.063Z,35.62
2024-05-09T22:44:09.075Z,35.61
2024-05-09T22:46:41.243Z,35.54
2024-05-09T22:49:15.955Z,35.53
2024-05-09T22:51:48.207Z,35.22
2024-05-09T22:54:25.614Z,35.79
2024-05-09T22:56:57.824Z,35.89
2024-05-09T22:59:32.875Z,35.51
2024-05-09T23:02:05.124Z,35.64
2024-05-09T23:04:41.074Z,35.66
2024-05-09T23:07:13.366Z,35.55
2024-05-09T23:09:51.161Z,35.38
2024-05-09T23:12:23.742Z,35.35
2024-05-09T23:14:58.468Z,35.66
2024-05-09T23:17:30.741Z,35.92
2024-05-09T23:20:08.784Z,35.41
2024-05-09T23:22:41.066Z,35.77
2024-05-09T23:25:18.522Z,35.77
2024-05-09T23:27:50.780Z,35.70
2024-05-09T23:30:33.745Z,36.12
2024-05-09T23:33:11.941Z,35.71
2024-05-09T23:35:47.087Z,35.91
2024-05-09T23:38:21.781Z,36.21
2024-05-09T23:41:01.166Z,36.33
2024-05-09T23:43:33.837Z,36.24
2024-05-09T23:46:09.412Z,36.17
2024-05-09T23:48:41.753Z,36.17
2024-05-09T23:51:17.444Z,36.07
2024-05-09T23:53:49.522Z,36.16
2024-05-09T23:56:27.024Z,35.81
2024-05-09T23:58:59.085Z,35.93
